Contact Us:
Email: info@sawbill.com
Phone: (218)663-7150
Fax: (218)663-7980
Mail: 4620 Sawbill Trail
Box 2129
Tofte, MN 55615


Powered by
Movable Type 3.15
 
Sawbill Weather History Archives: April 2009
Current Sawbill Weather History | « March 2009 | May 2009 »


Date

High
Temperature

Low
Temperature

Barometric
Pressure

Relative
Humidity 7AM

9 AM
Temperature

Moisture

Snow

4/30/09 52 34 29.75 98% 36 Trace
4/29/09 51 29 29.88 98% 39 .39"
4/28/09 50 30 30.45 60% 30 0
4/27/09 42 30 30.42 87% 31 .03"
4/26/09 42 33 29.68 98% 34 .25"
4/25/09 46 26 30.21 50% 33 0
4/24/09 49 32 30.00 90% 33 .23"
4/23/09 51 36 29.65 76% 43 Trace
4/22/09 44 30 29.85 70% 36 0
4/21/09 46 32 29.80 70% 32 Trace Trace
4/20/09 35 30 29.61 88% 32 Trace Trace
4/19/09 35 30 29.80 90% 30 .44" 2.5"
4/18/09 43 33 30.09 87% 33 Trace
4/17/09 62 39 30.15 93% 39 Trace
4/16/09 60 25 30.27 61% 44 0
4/15/09 52 28 30.13 58% 28 0
4/14/09 46 25 30.24 63% 25 0
4/13/09 46 32 30.09 49% 34 0
4/12/09 48 24 30.09 65% 32 0
4/11/09 44 23 30.30 63% 24 0
4/10/09 39 14 30.33 70% 23 0
4/9/09 37 14 30.12 70% 17 0
4/8/09 42 31 29.83 73% 31 0
4/7/09 39 24 29.68 49% 32 0
4/6/09 33 20 29.85 41% 24 0
4/5/09 34 18 30.09 59% 21 0
4/4/09 36 20 30.09 69% 20 0
4/3/09 30 27 29.94 94% 28 Trace Trace
4/2/09 34 28 29.73 97% 29 Trace Trace
4/1/09 36 28 29.65 94% 28 Trace Trace
 


Home I Trip Planning I Rentals and Outfitting I Reservations I Campgrounds I Sawbill Store I Sawbill News I Contact

© 1997 - 2017, Sawbill Canoe Outfitters, Inc. I Privacy Policy